sensor_id;sensor_type;location;lat;lon;timestamp;pressure;altitude;pressure_sealevel;temperature;humidity
73245;BME280;61460;41.158;-73.238;2022-10-15T00:03:26;101457.58;;;24.85;56.00
73245;BME280;61460;41.158;-73.238;2022-10-15T00:05:57;101459.27;;;24.90;55.68
73245;BME280;61460;41.158;-73.238;2022-10-15T00:08:27;101456.97;;;24.80;55.93
73245;BME280;61460;41.158;-73.238;2022-10-15T00:11:02;101461.51;;;24.83;55.73
73245;BME280;61460;41.158;-73.238;2022-10-15T00:13:28;101464.43;;;24.96;55.38
73245;BME280;61460;41.158;-73.238;2022-10-15T00:16:00;101461.33;;;24.91;55.46
73245;BME280;61460;41.158;-73.238;2022-10-15T00:18:30;101462.08;;;24.87;55.53
73245;BME280;61460;41.158;-73.238;2022-10-15T00:21:00;101460.82;;;24.79;55.71
73245;BME280;61460;41.158;-73.238;2022-10-15T00:23:31;101460.46;;;24.80;55.67
73245;BME280;61460;41.158;-73.238;2022-10-15T00:26:03;101463.15;;;24.90;55.44
73245;BME280;61460;41.158;-73.238;2022-10-15T00:28:32;101468.90;;;24.95;55.24
73245;BME280;61460;41.158;-73.238;2022-10-15T00:31:04;101467.98;;;24.98;55.18
73245;BME280;61460;41.158;-73.238;2022-10-15T00:33:33;101466.77;;;24.95;55.16
73245;BME280;61460;41.158;-73.238;2022-10-15T00:36:05;101470.03;;;24.94;55.28
73245;BME280;61460;41.158;-73.238;2022-10-15T00:38:34;101468.51;;;24.37;56.93
73245;BME280;61460;41.158;-73.238;2022-10-15T00:41:06;101472.47;;;24.35;56.77
73245;BME280;61460;41.158;-73.238;2022-10-15T00:43:37;101476.83;;;24.14;57.26
73245;BME280;61460;41.158;-73.238;2022-10-15T00:46:15;101476.25;;;24.27;56.71
73245;BME280;61460;41.158;-73.238;2022-10-15T00:48:36;101472.01;;;23.96;57.54
73245;BME280;61460;41.158;-73.238;2022-10-15T00:51:07;101476.13;;;23.56;58.65
73245;BME280;61460;41.158;-73.238;2022-10-15T00:53:37;101475.30;;;23.77;57.94
73245;BME280;61460;41.158;-73.238;2022-10-15T00:56:08;101477.73;;;23.76;58.06
73245;BME280;61460;41.158;-73.238;2022-10-15T00:58:38;101474.18;;;23.65;58.52
73245;BME280;61460;41.158;-73.238;2022-10-15T01:01:09;101473.68;;;23.44;59.14
73245;BME280;61460;41.158;-73.238;2022-10-15T01:03:40;101475.67;;;24.33;57.51
73245;BME280;61460;41.158;-73.238;2022-10-15T01:06:11;101475.81;;;24.33;57.74
73245;BME280;61460;41.158;-73.238;2022-10-15T01:08:42;101478.12;;;24.42;57.65
73245;BME280;61460;41.158;-73.238;2022-10-15T01:11:27;101481.34;;;24.56;57.15
73245;BME280;61460;41.158;-73.238;2022-10-15T01:13:48;101484.17;;;24.37;57.92
73245;BME280;61460;41.158;-73.238;2022-10-15T01:16:18;101486.34;;;24.39;57.70
73245;BME280;61460;41.158;-73.238;2022-10-15T01:18:47;101495.66;;;24.52;57.51
73245;BME280;61460;41.158;-73.238;2022-10-15T01:21:17;101490.73;;;24.53;57.57
73245;BME280;61460;41.158;-73.238;2022-10-15T01:23:58;101491.75;;;24.63;57.44
73245;BME280;61460;41.158;-73.238;2022-10-15T01:26:27;101493.64;;;24.69;57.19
73245;BME280;61460;41.158;-73.238;2022-10-15T01:28:51;101494.29;;;24.57;57.56
73245;BME280;61460;41.158;-73.238;2022-10-15T01:31:22;101489.67;;;24.59;57.43
73245;BME280;61460;41.158;-73.238;2022-10-15T01:33:51;101489.64;;;24.69;57.09
73245;BME280;61460;41.158;-73.238;2022-10-15T01:36:20;101494.47;;;24.70;56.96
73245;BME280;61460;41.158;-73.238;2022-10-15T01:38:55;101489.99;;;24.67;56.99
73245;BME280;61460;41.158;-73.238;2022-10-15T01:41:24;101487.89;;;24.66;57.04
73245;BME280;61460;41.158;-73.238;2022-10-15T01:43:57;101492.47;;;24.67;57.02
73245;BME280;61460;41.158;-73.238;2022-10-15T01:46:23;101497.22;;;24.68;56.83
73245;BME280;61460;41.158;-73.238;2022-10-15T01:48:52;101499.66;;;24.71;56.81
73245;BME280;61460;41.158;-73.238;2022-10-15T01:51:23;101497.83;;;24.67;56.74
73245;BME280;61460;41.158;-73.238;2022-10-15T01:53:52;101501.77;;;24.62;56.89
73245;BME280;61460;41.158;-73.238;2022-10-15T01:56:23;101502.34;;;24.68;56.65
73245;BME280;61460;41.158;-73.238;2022-10-15T01:58:55;101504.24;;;24.68;56.54
73245;BME280;61460;41.158;-73.238;2022-10-15T02:01:23;101502.52;;;24.52;57.23
73245;BME280;61460;41.158;-73.238;2022-10-15T02:03:54;101507.28;;;24.27;58.08
73245;BME280;61460;41.158;-73.238;2022-10-15T02:06:29;101509.10;;;24.22;58.13
73245;BME280;61460;41.158;-73.238;2022-10-15T02:09:03;101511.05;;;23.73;59.59
73245;BME280;61460;41.158;-73.238;2022-10-15T02:11:26;101508.59;;;23.66;59.82
73245;BME280;61460;41.158;-73.238;2022-10-15T02:14:00;101516.41;;;23.77;59.29
73245;BME280;61460;41.158;-73.238;2022-10-15T02:16:30;101519.46;;;23.74;59.23
73245;BME280;61460;41.158;-73.238;2022-10-15T02:19:02;101519.99;;;23.70;59.32
73245;BME280;61460;41.158;-73.238;2022-10-15T02:21:35;101523.26;;;23.62;59.62
73245;BME280;61460;41.158;-73.238;2022-10-15T02:24:05;101524.73;;;23.48;60.07
73245;BME280;61460;41.158;-73.238;2022-10-15T02:26:30;101526.73;;;23.77;58.93
73245;BME280;61460;41.158;-73.238;2022-10-15T02:29:02;101527.64;;;23.35;60.06
73245;BME280;61460;41.158;-73.238;2022-10-15T02:31:33;101527.24;;;23.61;59.30
73245;BME280;61460;41.158;-73.238;2022-10-15T02:34:05;101524.94;;;23.62;59.12
73245;BME280;61460;41.158;-73.238;2022-10-15T02:36:32;101530.40;;;23.34;59.71
73245;BME280;61460;41.158;-73.238;2022-10-15T02:39:03;101529.76;;;23.43;59.41
73245;BME280;61460;41.158;-73.238;2022-10-15T02:41:34;101537.37;;;23.29;59.77
73245;BME280;61460;41.158;-73.238;2022-10-15T02:44:04;101538.02;;;23.30;59.69
73245;BME280;61460;41.158;-73.238;2022-10-15T02:46:34;101534.21;;;23.32;59.74
73245;BME280;61460;41.158;-73.238;2022-10-15T02:49:05;101538.15;;;23.56;59.02
73245;BME280;61460;41.158;-73.238;2022-10-15T02:51:36;101539.42;;;23.03;60.54
73245;BME280;61460;41.158;-73.238;2022-10-15T02:54:07;101535.87;;;23.44;59.21
73245;BME280;61460;41.158;-73.238;2022-10-15T02:56:37;101531.55;;;23.15;60.00
73245;BME280;61460;41.158;-73.238;2022-10-15T02:59:07;101528.61;;;23.24;59.88
73245;BME280;61460;41.158;-73.238;2022-10-15T03:01:38;101529.65;;;23.24;59.82
73245;BME280;61460;41.158;-73.238;2022-10-15T03:04:09;101529.75;;;23.35;59.42
73245;BME280;61460;41.158;-73.238;2022-10-15T03:06:39;101532.68;;;23.27;59.73
73245;BME280;61460;41.158;-73.238;2022-10-15T03:09:10;101534.20;;;23.35;59.59
73245;BME280;61460;41.158;-73.238;2022-10-15T03:11:41;101534.99;;;23.19;59.94
73245;BME280;61460;41.158;-73.238;2022-10-15T03:14:11;101536.51;;;23.33;59.54
73245;BME280;61460;41.158;-73.238;2022-10-15T03:16:42;101534.38;;;23.01;60.47
73245;BME280;61460;41.158;-73.238;2022-10-15T03:19:12;101533.99;;;23.06;60.36
73245;BME280;61460;41.158;-73.238;2022-10-15T03:21:43;101539.79;;;23.03;60.53
73245;BME280;61460;41.158;-73.238;2022-10-15T03:24:14;101538.05;;;23.22;59.96
73245;BME280;61460;41.158;-73.238;2022-10-15T03:26:44;101542.88;;;23.26;60.08
73245;BME280;61460;41.158;-73.238;2022-10-15T03:29:15;101545.37;;;23.21;60.27
73245;BME280;61460;41.158;-73.238;2022-10-15T03:31:45;101549.81;;;23.43;59.59
73245;BME280;61460;41.158;-73.238;2022-10-15T03:34:16;101553.56;;;23.40;59.57
73245;BME280;61460;41.158;-73.238;2022-10-15T03:36:46;101556.29;;;23.34;59.63
73245;BME280;61460;41.158;-73.238;2022-10-15T03:39:17;101556.73;;;23.39;59.37
73245;BME280;61460;41.158;-73.238;2022-10-15T03:41:48;101560.32;;;23.27;59.68
73245;BME280;61460;41.158;-73.238;2022-10-15T03:44:19;101569.84;;;23.26;59.54
73245;BME280;61460;41.158;-73.238;2022-10-15T03:46:49;101565.91;;;23.15;59.82
73245;BME280;61460;41.158;-73.238;2022-10-15T03:49:20;101568.84;;;23.20;59.67
73245;BME280;61460;41.158;-73.238;2022-10-15T03:51:50;101566.94;;;23.38;59.22
73245;BME280;61460;41.158;-73.238;2022-10-15T03:54:21;101571.26;;;23.29;59.34
73245;BME280;61460;41.158;-73.238;2022-10-15T03:56:51;101573.31;;;23.29;59.35
73245;BME280;61460;41.158;-73.238;2022-10-15T03:59:22;101567.71;;;23.34;59.11
73245;BME280;61460;41.158;-73.238;2022-10-15T04:01:52;101574.55;;;23.27;59.19
73245;BME280;61460;41.158;-73.238;2022-10-15T04:04:23;101571.11;;;23.40;58.90
73245;BME280;61460;41.158;-73.238;2022-10-15T04:06:54;101576.90;;;23.43;58.81
73245;BME280;61460;41.158;-73.238;2022-10-15T04:09:24;101578.61;;;23.43;58.60
73245;BME280;61460;41.158;-73.238;2022-10-15T04:11:55;101585.38;;;23.31;59.00
73245;BME280;61460;41.158;-73.238;2022-10-15T04:14:26;101578.45;;;23.16;59.23
73245;BME280;61460;41.158;-73.238;2022-10-15T04:16:56;101582.27;;;23.20;59.09
73245;BME280;61460;41.158;-73.238;2022-10-15T04:19:27;101582.82;;;23.35;58.59
73245;BME280;61460;41.158;-73.238;2022-10-15T04:21:57;101579.96;;;23.11;59.22
73245;BME280;61460;41.158;-73.238;2022-10-15T04:24:28;101573.48;;;23.42;58.26
73245;BME280;61460;41.158;-73.238;2022-10-15T04:26:59;101574.02;;;23.14;59.09
73245;BME280;61460;41.158;-73.238;2022-10-15T04:29:29;101571.08;;;22.98;59.29
73245;BME280;61460;41.158;-73.238;2022-10-15T04:32:00;101575.62;;;23.13;58.79
73245;BME280;61460;41.158;-73.238;2022-10-15T04:34:31;101586.49;;;22.95;59.39
73245;BME280;61460;41.158;-73.238;2022-10-15T04:37:01;101587.52;;;23.02;59.10
73245;BME280;61460;41.158;-73.238;2022-10-15T04:39:32;101592.12;;;22.98;59.12
73245;BME280;61460;41.158;-73.238;2022-10-15T04:42:02;101586.49;;;23.01;59.02
73245;BME280;61460;41.158;-73.238;2022-10-15T04:44:33;101586.86;;;23.15;58.69
73245;BME280;61460;41.158;-73.238;2022-10-15T04:47:04;101591.23;;;23.07;58.84
73245;BME280;61460;41.158;-73.238;2022-10-15T04:49:34;101593.19;;;22.96;59.11
73245;BME280;61460;41.158;-73.238;2022-10-15T04:52:05;101594.62;;;22.92;59.25
73245;BME280;61460;41.158;-73.238;2022-10-15T04:54:37;101593.93;;;23.15;58.53
73245;BME280;61460;41.158;-73.238;2022-10-15T04:57:06;101598.88;;;23.13;58.48
73245;BME280;61460;41.158;-73.238;2022-10-15T04:59:36;101609.67;;;23.11;58.52
73245;BME280;61460;41.158;-73.238;2022-10-15T05:02:07;101611.19;;;23.26;58.22
73245;BME280;61460;41.158;-73.238;2022-10-15T05:04:37;101619.34;;;23.12;58.55
73245;BME280;61460;41.158;-73.238;2022-10-15T05:07:08;101621.80;;;23.10;58.69
73245;BME280;61460;41.158;-73.238;2022-10-15T05:09:39;101624.58;;;23.06;58.84
73245;BME280;61460;41.158;-73.238;2022-10-15T05:12:09;101627.10;;;23.11;58.62
73245;BME280;61460;41.158;-73.238;2022-10-15T05:14:40;101627.36;;;23.26;58.23
73245;BME280;61460;41.158;-73.238;2022-10-15T05:17:11;101630.44;;;23.11;58.46
73245;BME280;61460;41.158;-73.238;2022-10-15T05:19:41;101631.91;;;22.93;58.89
73245;BME280;61460;41.158;-73.238;2022-10-15T05:22:12;101631.41;;;23.11;58.38
73245;BME280;61460;41.158;-73.238;2022-10-15T05:24:42;101636.43;;;22.96;58.71
73245;BME280;61460;41.158;-73.238;2022-10-15T05:27:13;101638.32;;;22.70;59.26
73245;BME280;61460;41.158;-73.238;2022-10-15T05:29:44;101635.88;;;22.67;59.35
73245;BME280;61460;41.158;-73.238;2022-10-15T05:32:14;101638.01;;;22.80;58.91
73245;BME280;61460;41.158;-73.238;2022-10-15T05:34:45;101634.35;;;22.83;58.72
73245;BME280;61460;41.158;-73.238;2022-10-15T05:37:15;101637.57;;;22.87;58.67
73245;BME280;61460;41.158;-73.238;2022-10-15T05:39:46;101637.48;;;22.88;58.42
73245;BME280;61460;41.158;-73.238;2022-10-15T05:42:17;101635.46;;;22.79;58.62
73245;BME280;61460;41.158;-73.238;2022-10-15T05:44:47;101636.51;;;22.98;57.91
73245;BME280;61460;41.158;-73.238;2022-10-15T05:47:18;101637.63;;;22.78;58.50
73245;BME280;61460;41.158;-73.238;2022-10-15T05:49:48;101638.12;;;22.84;58.21
73245;BME280;61460;41.158;-73.238;2022-10-15T05:52:19;101637.51;;;22.97;57.76
73245;BME280;61460;41.158;-73.238;2022-10-15T05:54:50;101638.66;;;22.75;58.34
73245;BME280;61460;41.158;-73.238;2022-10-15T05:57:21;101642.95;;;22.84;58.11
73245;BME280;61460;41.158;-73.238;2022-10-15T05:59:51;101639.02;;;22.80;58.05
73245;BME280;61460;41.158;-73.238;2022-10-15T06:02:21;101642.63;;;22.76;58.26
73245;BME280;61460;41.158;-73.238;2022-10-15T06:04:52;101641.67;;;22.91;58.00
73245;BME280;61460;41.158;-73.238;2022-10-15T06:07:23;101640.87;;;22.88;57.92
73245;BME280;61460;41.158;-73.238;2022-10-15T06:09:53;101634.10;;;22.69;58.30
73245;BME280;61460;41.158;-73.238;2022-10-15T06:12:24;101636.34;;;22.66;58.31
73245;BME280;61460;41.158;-73.238;2022-10-15T06:14:54;101636.82;;;22.46;58.76
73245;BME280;61460;41.158;-73.238;2022-10-15T06:17:25;101638.47;;;22.65;58.17
73245;BME280;61460;41.158;-73.238;2022-10-15T06:19:56;101637.09;;;22.78;57.78
73245;BME280;61460;41.158;-73.238;2022-10-15T06:22:29;101636.20;;;22.58;58.20
73245;BME280;61460;41.158;-73.238;2022-10-15T06:24:57;101635.10;;;22.49;58.40
73245;BME280;61460;41.158;-73.238;2022-10-15T06:27:27;101636.31;;;22.82;57.29
73245;BME280;61460;41.158;-73.238;2022-10-15T06:29:58;101640.34;;;22.71;57.76
73245;BME280;61460;41.158;-73.238;2022-10-15T06:32:29;101644.80;;;22.52;58.17
73245;BME280;61460;41.158;-73.238;2022-10-15T06:34:59;101648.40;;;22.45;58.33
73245;BME280;61460;41.158;-73.238;2022-10-15T06:37:30;101632.45;;;22.36;58.57
73245;BME280;61460;41.158;-73.238;2022-10-15T06:40:00;101616.21;;;22.44;58.26
73245;BME280;61460;41.158;-73.238;2022-10-15T06:42:31;101620.46;;;22.52;58.11
73245;BME280;61460;41.158;-73.238;2022-10-15T06:45:02;101626.79;;;22.41;58.25
73245;BME280;61460;41.158;-73.238;2022-10-15T06:47:32;101624.93;;;22.58;57.79
73245;BME280;61460;41.158;-73.238;2022-10-15T06:50:04;101627.34;;;22.37;58.44
73245;BME280;61460;41.158;-73.238;2022-10-15T06:52:34;101628.83;;;22.65;57.45
73245;BME280;61460;41.158;-73.238;2022-10-15T06:55:05;101630.28;;;22.56;57.75
73245;BME280;61460;41.158;-73.238;2022-10-15T06:57:35;101621.36;;;22.68;57.25
73245;BME280;61460;41.158;-73.238;2022-10-15T07:00:07;101621.28;;;22.39;58.09
73245;BME280;61460;41.158;-73.238;2022-10-15T07:02:36;101606.12;;;22.34;58.30
73245;BME280;61460;41.158;-73.238;2022-10-15T07:05:07;101606.44;;;22.55;57.66
73245;BME280;61460;41.158;-73.238;2022-10-15T07:07:37;101604.52;;;22.48;57.76
73245;BME280;61460;41.158;-73.238;2022-10-15T07:10:08;101604.59;;;22.47;57.74
73245;BME280;61460;41.158;-73.238;2022-10-15T07:12:38;101607.44;;;22.53;57.70
73245;BME280;61460;41.158;-73.238;2022-10-15T07:15:09;101613.13;;;22.45;57.83
73245;BME280;61460;41.158;-73.238;2022-10-15T07:17:46;101613.47;;;22.50;57.57
73245;BME280;61460;41.158;-73.238;2022-10-15T07:20:10;101618.01;;;22.36;58.09
73245;BME280;61460;41.158;-73.238;2022-10-15T07:22:41;101624.68;;;22.17;58.62
73245;BME280;61460;41.158;-73.238;2022-10-15T07:25:11;101620.10;;;22.33;57.91
73245;BME280;61460;41.158;-73.238;2022-10-15T07:27:42;101615.77;;;22.63;57.03
73245;BME280;61460;41.158;-73.238;2022-10-15T07:30:12;101614.77;;;22.40;57.71
73245;BME280;61460;41.158;-73.238;2022-10-15T07:32:43;101612.44;;;22.81;56.26
73245;BME280;61460;41.158;-73.238;2022-10-15T07:35:14;101618.40;;;23.01;55.53
73245;BME280;61460;41.158;-73.238;2022-10-15T07:37:44;101619.17;;;22.92;55.76
73245;BME280;61460;41.158;-73.238;2022-10-15T07:40:15;101619.43;;;22.80;56.03
73245;BME280;61460;41.158;-73.238;2022-10-15T07:42:51;101617.72;;;22.79;55.97
73245;BME280;61460;41.158;-73.238;2022-10-15T07:45:16;101618.70;;;22.76;55.89
73245;BME280;61460;41.158;-73.238;2022-10-15T07:47:47;101621.83;;;22.80;55.74
73245;BME280;61460;41.158;-73.238;2022-10-15T07:50:18;101622.78;;;22.72;55.84
73245;BME280;61460;41.158;-73.238;2022-10-15T07:52:48;101629.00;;;22.77;55.76
73245;BME280;61460;41.158;-73.238;2022-10-15T07:55:18;101625.70;;;22.32;57.23
73245;BME280;61460;41.158;-73.238;2022-10-15T07:57:49;101633.10;;;22.11;58.02
73245;BME280;61460;41.158;-73.238;2022-10-15T08:00:20;101621.34;;;22.12;57.97
73245;BME280;61460;41.158;-73.238;2022-10-15T08:02:50;101631.67;;;22.14;57.86
73245;BME280;61460;41.158;-73.238;2022-10-15T08:05:21;101625.16;;;22.20;57.55
73245;BME280;61460;41.158;-73.238;2022-10-15T08:07:51;101624.56;;;22.15;57.76
73245;BME280;61460;41.158;-73.238;2022-10-15T08:10:22;101628.32;;;22.02;58.04
73245;BME280;61460;41.158;-73.238;2022-10-15T08:12:53;101619.24;;;22.17;57.63
73245;BME280;61460;41.158;-73.238;2022-10-15T08:15:23;101618.28;;;22.05;57.91
73245;BME280;61460;41.158;-73.238;2022-10-15T08:17:54;101617.94;;;22.11;57.71
73245;BME280;61460;41.158;-73.238;2022-10-15T08:20:25;101609.12;;;22.10;57.73
73245;BME280;61460;41.158;-73.238;2022-10-15T08:22:55;101611.09;;;21.81;58.45
73245;BME280;61460;41.158;-73.238;2022-10-15T08:25:26;101614.19;;;22.14;57.49
73245;BME280;61460;41.158;-73.238;2022-10-15T08:27:56;101617.54;;;22.08;57.57
73245;BME280;61460;41.158;-73.238;2022-10-15T08:30:27;101622.83;;;22.03;57.67
73245;BME280;61460;41.158;-73.238;2022-10-15T08:32:57;101617.94;;;22.21;57.09
73245;BME280;61460;41.158;-73.238;2022-10-15T08:35:28;101609.10;;;22.21;57.08
73245;BME280;61460;41.158;-73.238;2022-10-15T08:37:59;101615.58;;;22.00;57.75
73245;BME280;61460;41.158;-73.238;2022-10-15T08:40:29;101611.80;;;22.19;57.01
73245;BME280;61460;41.158;-73.238;2022-10-15T08:43:00;101625.77;;;22.30;56.67
73245;BME280;61460;41.158;-73.238;2022-10-15T08:45:34;101640.85;;;22.11;57.20
73245;BME280;61460;41.158;-73.238;2022-10-15T08:48:05;101639.77;;;22.09;57.27
73245;BME280;61460;41.158;-73.238;2022-10-15T08:50:38;101639.86;;;22.33;56.44
73245;BME280;61460;41.158;-73.238;2022-10-15T08:53:03;101644.36;;;21.92;57.79
73245;BME280;61460;41.158;-73.238;2022-10-15T08:55:38;101639.96;;;21.98;57.47
73245;BME280;61460;41.158;-73.238;2022-10-15T08:58:09;101642.17;;;22.04;57.29
73245;BME280;61460;41.158;-73.238;2022-10-15T09:00:39;101644.61;;;22.07;57.19
73245;BME280;61460;41.158;-73.238;2022-10-15T09:03:12;101644.90;;;21.87;57.68
73245;BME280;61460;41.158;-73.238;2022-10-15T09:05:41;101646.95;;;21.57;58.69
73245;BME280;61460;41.158;-73.238;2022-10-15T09:08:15;101650.20;;;22.04;57.52
73245;BME280;61460;41.158;-73.238;2022-10-15T09:10:42;101646.44;;;21.86;57.94
73245;BME280;61460;41.158;-73.238;2022-10-15T09:13:11;101648.16;;;21.92;57.59
73245;BME280;61460;41.158;-73.238;2022-10-15T09:15:46;101650.62;;;21.84;57.65
73245;BME280;61460;41.158;-73.238;2022-10-15T09:18:17;101655.71;;;22.05;56.97
73245;BME280;61460;41.158;-73.238;2022-10-15T09:20:39;101658.60;;;21.62;58.17
73245;BME280;61460;41.158;-73.238;2022-10-15T09:23:14;101655.87;;;21.80;57.62
73245;BME280;61460;41.158;-73.238;2022-10-15T09:25:41;101656.52;;;21.77;57.50
73245;BME280;61460;41.158;-73.238;2022-10-15T09:28:16;101660.31;;;21.77;57.45
73245;BME280;61460;41.158;-73.238;2022-10-15T09:30:44;101666.99;;;21.74;57.48
73245;BME280;61460;41.158;-73.238;2022-10-15T09:33:17;101669.51;;;21.83;57.24
73245;BME280;61460;41.158;-73.238;2022-10-15T09:35:46;101673.21;;;21.88;57.02
73245;BME280;61460;41.158;-73.238;2022-10-15T09:38:24;101678.44;;;21.82;57.13
73245;BME280;61460;41.158;-73.238;2022-10-15T09:40:54;101680.36;;;21.75;57.31
73245;BME280;61460;41.158;-73.238;2022-10-15T09:43:19;101678.96;;;21.82;56.90
73245;BME280;61460;41.158;-73.238;2022-10-15T09:45:45;101679.35;;;21.81;57.07
73245;BME280;61460;41.158;-73.238;2022-10-15T09:48:17;101681.41;;;21.73;57.47
73245;BME280;61460;41.158;-73.238;2022-10-15T09:50:53;101682.58;;;21.80;57.34
73245;BME280;61460;41.158;-73.238;2022-10-15T09:53:20;101676.05;;;21.67;57.67
73245;BME280;61460;41.158;-73.238;2022-10-15T09:55:52;101681.09;;;21.77;57.27
73245;BME280;61460;41.158;-73.238;2022-10-15T09:58:22;101683.65;;;21.77;57.18
73245;BME280;61460;41.158;-73.238;2022-10-15T10:00:55;101687.93;;;21.70;57.36
73245;BME280;61460;41.158;-73.238;2022-10-15T10:03:22;101687.58;;;21.57;57.70
73245;BME280;61460;41.158;-73.238;2022-10-15T10:05:50;101693.84;;;22.04;56.18
73245;BME280;61460;41.158;-73.238;2022-10-15T10:08:24;101691.80;;;21.76;57.04
73245;BME280;61460;41.158;-73.238;2022-10-15T10:10:54;101690.83;;;21.80;56.97
73245;BME280;61460;41.158;-73.238;2022-10-15T10:13:24;101685.81;;;21.77;57.16
73245;BME280;61460;41.158;-73.238;2022-10-15T10:15:54;101688.12;;;21.99;56.50
73245;BME280;61460;41.158;-73.238;2022-10-15T10:18:24;101692.62;;;21.57;57.56
73245;BME280;61460;41.158;-73.238;2022-10-15T10:20:56;101699.54;;;21.73;57.19
73245;BME280;61460;41.158;-73.238;2022-10-15T10:23:29;101700.11;;;21.63;57.44
73245;BME280;61460;41.158;-73.238;2022-10-15T10:25:56;101701.83;;;21.59;57.55
73245;BME280;61460;41.158;-73.238;2022-10-15T10:28:31;101704.66;;;21.64;57.50
73245;BME280;61460;41.158;-73.238;2022-10-15T10:31:02;101708.44;;;21.31;58.23
73245;BME280;61460;41.158;-73.238;2022-10-15T10:33:29;101711.30;;;21.67;57.33
73245;BME280;61460;41.158;-73.238;2022-10-15T10:35:58;101719.12;;;21.65;57.18
73245;BME280;61460;41.158;-73.238;2022-10-15T10:38:31;101722.99;;;21.68;57.13
73245;BME280;61460;41.158;-73.238;2022-10-15T10:41:00;101716.50;;;21.77;56.64
73245;BME280;61460;41.158;-73.238;2022-10-15T10:43:31;101708.06;;;21.46;57.68
73245;BME280;61460;41.158;-73.238;2022-10-15T10:46:02;101708.45;;;21.31;57.89
73245;BME280;61460;41.158;-73.238;2022-10-15T10:48:37;101703.76;;;21.41;57.45
73245;BME280;61460;41.158;-73.238;2022-10-15T10:51:05;101706.65;;;21.46;57.39
73245;BME280;61460;41.158;-73.238;2022-10-15T10:53:34;101705.74;;;21.46;57.51
73245;BME280;61460;41.158;-73.238;2022-10-15T10:56:04;101709.84;;;21.42;57.57
73245;BME280;61460;41.158;-73.238;2022-10-15T10:58:33;101714.94;;;21.42;57.49
73245;BME280;61460;41.158;-73.238;2022-10-15T11:01:04;101713.43;;;21.34;57.66
73245;BME280;61460;41.158;-73.238;2022-10-15T11:03:36;101706.47;;;21.57;56.88
73245;BME280;61460;41.158;-73.238;2022-10-15T11:06:19;101710.21;;;21.57;56.99
73245;BME280;61460;41.158;-73.238;2022-10-15T11:08:41;101714.35;;;21.54;57.10
73245;BME280;61460;41.158;-73.238;2022-10-15T11:11:11;101716.77;;;21.65;56.69
73245;BME280;61460;41.158;-73.238;2022-10-15T11:13:45;101720.84;;;21.34;57.57
73245;BME280;61460;41.158;-73.238;2022-10-15T11:16:10;101713.99;;;21.27;57.78
73245;BME280;61460;41.158;-73.238;2022-10-15T11:18:49;101709.72;;;21.41;57.57
73245;BME280;61460;41.158;-73.238;2022-10-15T11:21:16;101712.87;;;21.30;57.77
73245;BME280;61460;41.158;-73.238;2022-10-15T11:23:50;101713.03;;;21.01;58.69
73245;BME280;61460;41.158;-73.238;2022-10-15T11:26:21;101714.26;;;21.15;58.36
73245;BME280;61460;41.158;-73.238;2022-10-15T11:28:47;101713.94;;;21.10;58.51
73245;BME280;61460;41.158;-73.238;2022-10-15T11:31:16;101719.46;;;21.30;57.64
73245;BME280;61460;41.158;-73.238;2022-10-15T11:33:52;101720.15;;;21.27;58.33
73245;BME280;61460;41.158;-73.238;2022-10-15T11:36:22;101723.84;;;21.14;58.72
73245;BME280;61460;41.158;-73.238;2022-10-15T11:38:46;101728.20;;;21.18;58.71
73245;BME280;61460;41.158;-73.238;2022-10-15T11:41:26;101728.38;;;21.29;58.44
73245;BME280;61460;41.158;-73.238;2022-10-15T11:43:57;101728.83;;;21.35;58.39
73245;BME280;61460;41.158;-73.238;2022-10-15T11:46:19;101731.26;;;21.16;59.01
73245;BME280;61460;41.158;-73.238;2022-10-15T11:48:53;101731.50;;;21.39;58.45
73245;BME280;61460;41.158;-73.238;2022-10-15T11:51:23;101736.03;;;21.64;57.79
73245;BME280;61460;41.158;-73.238;2022-10-15T11:56:19;101730.26;;;21.05;59.64
73245;BME280;61460;41.158;-73.238;2022-10-15T11:58:51;101727.11;;;21.26;59.13
73245;BME280;61460;41.158;-73.238;2022-10-15T12:01:22;101727.46;;;21.42;58.51
73245;BME280;61460;41.158;-73.238;2022-10-15T12:03:52;101734.53;;;21.47;58.65
73245;BME280;61460;41.158;-73.238;2022-10-15T12:06:22;101731.54;;;21.28;58.90
73245;BME280;61460;41.158;-73.238;2022-10-15T12:08:51;101732.75;;;21.44;58.56
73245;BME280;61460;41.158;-73.238;2022-10-15T12:11:28;101734.89;;;21.65;57.73
73245;BME280;61460;41.158;-73.238;2022-10-15T12:13:56;101738.10;;;21.72;57.72
73245;BME280;61460;41.158;-73.238;2022-10-15T12:16:27;101745.54;;;21.65;57.88
73245;BME280;61460;41.158;-73.238;2022-10-15T12:18:59;101745.94;;;21.73;57.59
73245;BME280;61460;41.158;-73.238;2022-10-15T12:21:29;101744.75;;;21.61;58.04
73245;BME280;61460;41.158;-73.238;2022-10-15T12:23:54;101745.76;;;21.69;57.69
73245;BME280;61460;41.158;-73.238;2022-10-15T12:26:28;101751.38;;;21.76;57.50
73245;BME280;61460;41.158;-73.238;2022-10-15T12:28:56;101756.25;;;21.90;56.84
73245;BME280;61460;41.158;-73.238;2022-10-15T12:33:57;101761.64;;;22.51;55.20
73245;BME280;61460;41.158;-73.238;2022-10-15T12:36:28;101761.39;;;21.74;57.38
73245;BME280;61460;41.158;-73.238;2022-10-15T12:38:59;101762.27;;;22.06;56.47
73245;BME280;61460;41.158;-73.238;2022-10-15T12:41:34;101765.83;;;22.10;56.19
73245;BME280;61460;41.158;-73.238;2022-10-15T12:44:05;101764.01;;;21.98;56.67
73245;BME280;61460;41.158;-73.238;2022-10-15T12:46:35;101763.44;;;22.10;56.12
73245;BME280;61460;41.158;-73.238;2022-10-15T12:49:00;101762.61;;;22.13;55.73
73245;BME280;61460;41.158;-73.238;2022-10-15T12:51:36;101759.94;;;22.15;55.83
73245;BME280;61460;41.158;-73.238;2022-10-15T12:54:01;101764.93;;;22.23;55.88